createdAt,value
2023-01-13T00:00:26.911Z,41.09
2023-01-13T00:01:26.856Z,40.12
2023-01-13T00:02:26.863Z,42.06
2023-01-13T00:03:26.830Z,44.15
2023-01-13T00:04:26.889Z,44.47
2023-01-13T00:05:26.816Z,40.93
2023-01-13T00:06:26.840Z,39.96
2023-01-13T00:07:26.804Z,40.28
2023-01-13T00:08:26.803Z,43.67
2023-01-13T00:09:26.813Z,43.99
2023-01-13T00:10:26.789Z,45.44
2023-01-13T00:11:26.777Z,41.57
2023-01-13T00:12:26.765Z,45.28
2023-01-13T00:13:26.811Z,52.85
2023-01-13T00:14:26.776Z,48.02
2023-01-13T00:15:26.739Z,42.54
2023-01-13T00:16:26.731Z,40.44
2023-01-13T00:17:26.720Z,40.61
2023-01-13T00:18:26.716Z,52.69
2023-01-13T00:19:26.733Z,49.15
2023-01-13T00:20:26.696Z,43.18
2023-01-13T00:21:26.698Z,45.44
2023-01-13T00:22:26.689Z,46.73
2023-01-13T00:23:26.681Z,45.76
2023-01-13T00:24:26.695Z,47.53
2023-01-13T00:25:26.664Z,41.41
2023-01-13T00:26:26.662Z,40.77
2023-01-13T00:27:26.647Z,42.70
2023-01-13T00:28:26.634Z,40.77
2023-01-13T00:29:26.676Z,40.77
2023-01-13T00:30:26.624Z,43.67
2023-01-13T00:31:26.662Z,42.54
2023-01-13T00:32:26.621Z,47.21
2023-01-13T00:33:26.596Z,42.06
2023-01-13T00:34:26.624Z,42.70
2023-01-13T00:35:26.704Z,40.28
2023-01-13T00:36:26.571Z,39.80
2023-01-13T00:37:26.564Z,40.93
2023-01-13T00:38:26.556Z,40.93
2023-01-13T00:39:26.574Z,43.02
2023-01-13T00:40:26.541Z,48.82
2023-01-13T00:41:26.547Z,45.76
2023-01-13T00:42:26.521Z,43.67
2023-01-13T00:43:26.521Z,41.25
2023-01-13T00:44:26.522Z,40.61
2023-01-13T00:45:26.497Z,41.25
2023-01-13T00:46:26.537Z,42.86
2023-01-13T00:47:26.487Z,49.15
2023-01-13T00:48:26.473Z,44.31
2023-01-13T00:49:26.494Z,49.63
2023-01-13T00:50:26.459Z,46.89
2023-01-13T00:51:26.459Z,42.38
2023-01-13T00:52:26.440Z,40.61
2023-01-13T00:53:26.437Z,42.06
2023-01-13T00:54:26.452Z,46.08
2023-01-13T00:55:26.417Z,41.25
2023-01-13T00:56:39.572Z,41.41
2023-01-13T00:57:28.406Z,43.18
2023-01-13T00:58:26.394Z,42.70
2023-01-13T00:59:26.422Z,51.72
2023-01-13T01:00:26.381Z,46.25
2023-01-13T01:01:26.493Z,40.61
2023-01-13T01:02:26.412Z,39.80
2023-01-13T01:03:26.354Z,39.96
2023-01-13T01:04:26.386Z,40.93
2023-01-13T01:05:26.372Z,39.96
2023-01-13T01:06:26.329Z,39.96
2023-01-13T01:07:26.324Z,40.28
2023-01-13T01:08:26.315Z,40.61
2023-01-13T01:09:26.334Z,40.44
2023-01-13T01:10:26.308Z,42.54
2023-01-13T01:11:26.301Z,44.47
2023-01-13T01:12:26.281Z,42.22
2023-01-13T01:13:26.274Z,40.93
2023-01-13T01:14:26.296Z,41.25
2023-01-13T01:15:26.258Z,40.77
2023-01-13T01:16:26.391Z,40.77
2023-01-13T01:17:26.250Z,41.25
2023-01-13T01:18:26.235Z,42.06
2023-01-13T01:19:26.253Z,40.61
2023-01-13T01:20:26.243Z,47.53
2023-01-13T01:21:26.208Z,40.61
2023-01-13T01:22:26.202Z,40.61
2023-01-13T01:23:26.203Z,48.82
2023-01-13T01:24:26.191Z,42.38
2023-01-13T01:25:26.208Z,40.28
2023-01-13T01:26:26.169Z,41.25
2023-01-13T01:27:26.167Z,41.41
2023-01-13T01:28:26.148Z,40.44
2023-01-13T01:29:26.162Z,42.70
2023-01-13T01:30:26.179Z,40.77
2023-01-13T01:31:26.229Z,39.64
2023-01-13T01:32:26.122Z,40.61
2023-01-13T01:33:26.114Z,46.73
2023-01-13T01:34:26.112Z,41.73
2023-01-13T01:35:26.130Z,43.51
2023-01-13T01:36:26.089Z,45.76
2023-01-13T01:37:26.083Z,43.02
2023-01-13T01:38:26.074Z,45.92
2023-01-13T01:39:26.085Z,46.25
2023-01-13T01:40:26.087Z,41.25
2023-01-13T01:41:26.053Z,40.77
2023-01-13T01:42:26.049Z,43.83
2023-01-13T01:43:26.041Z,41.09
2023-01-13T01:44:26.027Z,41.89
2023-01-13T01:45:26.041Z,40.44
2023-01-13T01:46:26.028Z,41.41
2023-01-13T01:47:26.009Z,44.79
2023-01-13T01:48:26.007Z,48.18
2023-01-13T01:49:26.001Z,48.34
2023-01-13T01:50:26.016Z,42.22
2023-01-13T01:51:25.979Z,41.57
2023-01-13T01:52:25.966Z,45.12
2023-01-13T01:53:25.959Z,43.18
2023-01-13T01:54:25.957Z,41.57
2023-01-13T01:55:25.967Z,46.25
2023-01-13T01:56:25.937Z,42.86
2023-01-13T01:57:25.929Z,43.83
2023-01-13T01:58:25.927Z,50.92
2023-01-13T01:59:25.919Z,46.08
2023-01-13T02:00:25.941Z,42.38
2023-01-13T02:01:26.026Z,41.09
2023-01-13T02:02:25.909Z,41.25
2023-01-13T02:03:25.882Z,41.41
2023-01-13T02:04:25.876Z,41.73
2023-01-13T02:05:25.905Z,41.09
2023-01-13T02:06:25.858Z,42.54
2023-01-13T02:07:25.850Z,43.34
2023-01-13T02:08:25.847Z,43.34
2023-01-13T02:09:25.844Z,43.02
2023-01-13T02:10:25.861Z,42.22
2023-01-13T02:11:25.820Z,41.89
2023-01-13T02:12:25.813Z,42.86
2023-01-13T02:13:25.799Z,42.70
2023-01-13T02:14:25.800Z,44.15
2023-01-13T02:15:25.816Z,50.76
2023-01-13T02:16:25.806Z,43.02
2023-01-13T02:17:25.793Z,44.15
2023-01-13T02:18:25.767Z,41.25
2023-01-13T02:19:25.753Z,41.57
2023-01-13T02:20:25.797Z,42.54
2023-01-13T02:21:25.745Z,44.63
2023-01-13T02:22:25.741Z,41.41
2023-01-13T02:23:25.727Z,41.73
2023-01-13T02:24:25.722Z,40.44
2023-01-13T02:25:25.745Z,43.02
2023-01-13T02:26:25.714Z,41.25
2023-01-13T02:27:25.689Z,43.99
2023-01-13T02:28:25.693Z,52.53
2023-01-13T02:29:25.676Z,41.89
2023-01-13T02:30:25.698Z,45.12
2023-01-13T02:31:25.671Z,44.15
2023-01-13T02:32:25.660Z,40.12
2023-01-13T02:33:25.658Z,42.06
2023-01-13T02:34:25.650Z,44.15
2023-01-13T02:35:25.655Z,42.54
2023-01-13T02:36:25.636Z,43.34
2023-01-13T02:37:25.614Z,43.67
2023-01-13T02:38:25.608Z,43.02
2023-01-13T02:39:25.599Z,47.37
2023-01-13T02:40:25.633Z,44.31
2023-01-13T02:41:25.586Z,44.79
2023-01-13T02:42:25.585Z,52.85
2023-01-13T02:43:25.565Z,51.56
2023-01-13T02:44:25.561Z,41.25
2023-01-13T02:45:25.622Z,43.99
2023-01-13T02:46:25.538Z,43.02
2023-01-13T02:47:25.532Z,40.61
2023-01-13T02:48:25.535Z,40.93
2023-01-13T02:49:25.527Z,39.32
2023-01-13T02:50:25.528Z,40.77
2023-01-13T02:51:25.527Z,42.86
2023-01-13T02:52:25.496Z,40.44
2023-01-13T02:53:25.490Z,40.28
2023-01-13T02:54:25.479Z,39.64
2023-01-13T02:55:25.480Z,39.48
2023-01-13T02:56:25.495Z,40.61
2023-01-13T02:57:25.462Z,40.77
2023-01-13T02:58:25.455Z,42.86
2023-01-13T02:59:25.383Z,43.51
2023-01-13T03:00:27.157Z,45.76
2023-01-13T03:01:25.475Z,46.73
2023-01-13T03:02:25.359Z,45.92
2023-01-13T03:03:25.309Z,40.93
2023-01-13T03:04:25.305Z,42.86
2023-01-13T03:05:25.294Z,43.18
2023-01-13T03:06:25.302Z,51.08
2023-01-13T03:07:26.286Z,43.02
2023-01-13T03:08:25.277Z,41.41
2023-01-13T03:09:25.267Z,40.77
2023-01-13T03:10:25.265Z,47.05
2023-01-13T03:11:25.274Z,41.09
2023-01-13T03:12:25.240Z,41.41
2023-01-13T03:13:25.231Z,43.34
2023-01-13T03:14:25.245Z,46.25
2023-01-13T03:15:25.210Z,48.02
2023-01-13T03:16:25.240Z,45.92
2023-01-13T03:17:25.200Z,42.06
2023-01-13T03:18:25.193Z,40.28
2023-01-13T03:19:25.186Z,39.64
2023-01-13T03:20:25.251Z,40.12
2023-01-13T03:21:25.187Z,40.28
2023-01-13T03:22:25.159Z,41.73
2023-01-13T03:23:25.151Z,42.22
2023-01-13T03:24:25.141Z,45.12
2023-01-13T03:25:25.147Z,42.70
2023-01-13T03:26:25.151Z,41.25
2023-01-13T03:27:25.119Z,42.22
2023-01-13T03:28:25.111Z,40.61
2023-01-13T03:29:25.113Z,42.22
2023-01-13T03:30:25.130Z,41.73
2023-01-13T03:31:25.112Z,41.25
2023-01-13T03:32:25.083Z,47.37
2023-01-13T03:33:25.072Z,42.06
2023-01-13T03:34:25.066Z,40.93
2023-01-13T03:35:25.063Z,41.41
2023-01-13T03:36:25.080Z,45.12
2023-01-13T03:37:25.039Z,48.18
2023-01-13T03:38:25.037Z,48.66
2023-01-13T03:39:25.025Z,48.50
2023-01-13T03:40:25.019Z,44.15
2023-01-13T03:41:25.040Z,41.57
2023-01-13T03:42:25.012Z,44.15
2023-01-13T03:43:24.996Z,42.54
2023-01-13T03:44:24.996Z,39.96
2023-01-13T03:45:24.981Z,40.61
2023-01-13T03:46:25.045Z,45.76
2023-01-13T03:47:24.964Z,41.89
2023-01-13T03:48:24.956Z,46.57
2023-01-13T03:49:24.949Z,47.53
2023-01-13T03:50:24.943Z,45.28
2023-01-13T03:51:24.936Z,43.02
2023-01-13T03:52:24.953Z,47.37
2023-01-13T03:53:24.919Z,47.70
2023-01-13T03:54:24.916Z,49.31
2023-01-13T03:55:24.907Z,44.79
2023-01-13T03:56:24.899Z,46.73
2023-01-13T03:57:24.922Z,53.01
2023-01-13T03:58:24.883Z,46.89
2023-01-13T03:59:24.872Z,43.34
2023-01-13T04:00:24.863Z,48.82
2023-01-13T04:01:25.917Z,47.37
2023-01-13T04:02:24.878Z,45.76
2023-01-13T04:03:24.871Z,45.60
2023-01-13T04:04:24.837Z,42.06
2023-01-13T04:05:24.835Z,42.22
2023-01-13T04:06:24.821Z,44.63
2023-01-13T04:07:24.843Z,43.99
2023-01-13T04:08:24.807Z,46.08
2023-01-13T04:09:24.802Z,43.99
2023-01-13T04:10:24.807Z,54.30
2023-01-13T04:11:24.790Z,50.27
2023-01-13T04:12:24.802Z,48.98
2023-01-13T04:13:24.771Z,45.28
2023-01-13T04:14:24.759Z,48.50
2023-01-13T04:15:24.771Z,49.31
2023-01-13T04:16:24.748Z,46.57
2023-01-13T04:17:24.782Z,45.60
2023-01-13T04:18:24.730Z,48.18
2023-01-13T04:19:24.719Z,51.72
2023-01-13T04:20:24.705Z,46.73
2023-01-13T04:21:25.710Z,54.95
2023-01-13T04:22:24.751Z,49.63
2023-01-13T04:23:24.699Z,48.02
2023-01-13T04:24:24.683Z,51.40
2023-01-13T04:25:24.680Z,56.56
2023-01-13T04:26:24.667Z,57.69
2023-01-13T04:27:24.656Z,62.04
2023-01-13T04:28:24.673Z,58.81
2023-01-13T04:29:24.640Z,56.88
2023-01-13T04:30:24.637Z,56.07
2023-01-13T04:31:24.689Z,53.50
2023-01-13T04:32:24.620Z,53.50
2023-01-13T04:33:24.633Z,51.72
2023-01-13T04:34:26.345Z,48.02
2023-01-13T04:35:24.601Z,52.69
2023-01-13T04:36:24.587Z,57.52
2023-01-13T04:37:24.592Z,54.62
2023-01-13T04:38:24.597Z,53.33
2023-01-13T04:39:24.570Z,57.20
2023-01-13T04:40:24.553Z,55.91
2023-01-13T04:41:24.551Z,56.40
2023-01-13T04:42:24.549Z,56.88
2023-01-13T04:43:24.562Z,54.95
2023-01-13T04:44:24.527Z,51.88
2023-01-13T04:45:24.524Z,52.05
2023-01-13T04:46:24.542Z,53.01
2023-01-13T04:47:24.516Z,51.56
2023-01-13T04:48:24.526Z,51.88
2023-01-13T04:49:24.492Z,55.11
2023-01-13T04:50:24.478Z,55.59
2023-01-13T04:51:24.476Z,54.30
2023-01-13T04:52:24.467Z,49.95
2023-01-13T04:53:24.481Z,49.15
2023-01-13T04:54:24.450Z,49.95
2023-01-13T04:55:24.453Z,49.95
2023-01-13T04:56:24.433Z,52.85
2023-01-13T04:57:24.423Z,51.56
2023-01-13T04:58:24.464Z,49.95
2023-01-13T04:59:24.415Z,49.79
2023-01-13T05:00:24.405Z,51.40
2023-01-13T05:01:24.507Z,50.43
2023-01-13T05:02:24.413Z,49.47
2023-01-13T05:03:24.416Z,56.07
2023-01-13T05:04:24.392Z,55.27
2023-01-13T05:05:24.359Z,53.98
2023-01-13T05:06:24.355Z,55.43
2023-01-13T05:07:24.348Z,54.30
2023-01-13T05:08:24.365Z,55.11
2023-01-13T05:09:24.335Z,55.11
2023-01-13T05:10:24.347Z,55.59
2023-01-13T05:11:24.313Z,57.52
2023-01-13T05:12:24.303Z,56.56
2023-01-13T05:13:24.323Z,58.97
2023-01-13T05:14:24.293Z,57.52
2023-01-13T05:15:24.281Z,59.46
2023-01-13T05:16:24.305Z,60.10
2023-01-13T05:17:24.299Z,57.20
2023-01-13T05:18:24.259Z,59.14
2023-01-13T05:19:24.276Z,59.30
2023-01-13T05:20:24.248Z,60.10
2023-01-13T05:21:24.233Z,58.97
2023-01-13T05:22:24.230Z,56.24
2023-01-13T05:23:24.224Z,56.88
2023-01-13T05:24:24.238Z,54.79
2023-01-13T05:25:24.211Z,56.24
2023-01-13T05:26:24.193Z,51.72
2023-01-13T05:27:24.200Z,56.56
2023-01-13T05:28:24.187Z,50.43
2023-01-13T05:29:24.207Z,51.88
2023-01-13T05:30:24.162Z,53.50
2023-01-13T05:31:24.179Z,52.05
2023-01-13T05:32:24.148Z,54.30
2023-01-13T05:33:24.149Z,53.17
2023-01-13T05:34:24.156Z,57.20
2023-01-13T05:35:24.121Z,53.98
2023-01-13T05:36:24.115Z,52.69
2023-01-13T05:37:24.102Z,55.11
2023-01-13T05:38:24.095Z,47.70
2023-01-13T05:39:24.122Z,51.40
2023-01-13T05:40:24.087Z,55.11
2023-01-13T05:41:24.070Z,53.33
2023-01-13T05:42:24.066Z,58.01
2023-01-13T05:43:24.055Z,52.85
2023-01-13T05:44:24.073Z,54.79
2023-01-13T05:45:24.041Z,59.62
2023-01-13T05:46:24.108Z,52.69
2023-01-13T05:47:24.021Z,53.50
2023-01-13T05:48:24.019Z,56.40
2023-01-13T05:49:24.036Z,58.33
2023-01-13T05:50:23.998Z,57.69
2023-01-13T05:51:23.991Z,58.81
2023-01-13T05:52:23.983Z,59.78
2023-01-13T05:53:23.983Z,59.78
2023-01-13T05:54:24.000Z,59.14
2023-01-13T05:55:23.964Z,61.39
2023-01-13T05:56:23.960Z,57.20
2023-01-13T05:57:23.957Z,58.33
2023-01-13T05:58:23.939Z,57.85
2023-01-13T05:59:23.931Z,59.30
2023-01-13T06:00:23.947Z,57.36
2023-01-13T06:01:23.936Z,57.04
2023-01-13T06:02:23.909Z,57.52
2023-01-13T06:03:23.899Z,52.37
2023-01-13T06:04:23.931Z,53.82
2023-01-13T06:05:23.911Z,54.95
2023-01-13T06:06:23.882Z,54.95
2023-01-13T06:07:23.866Z,54.95
2023-01-13T06:08:23.864Z,54.30
2023-01-13T06:09:23.860Z,54.95
2023-01-13T06:10:23.872Z,52.37
2023-01-13T06:11:23.836Z,51.08
2023-01-13T06:12:23.830Z,45.60
2023-01-13T06:13:23.823Z,54.30
2023-01-13T06:14:23.812Z,58.33
2023-01-13T06:15:23.828Z,56.88
2023-01-13T06:16:23.849Z,51.56
2023-01-13T06:17:23.796Z,54.62
2023-01-13T06:18:23.786Z,54.95
2023-01-13T06:19:23.772Z,54.95
2023-01-13T06:20:23.790Z,49.95
2023-01-13T06:21:23.754Z,55.75
2023-01-13T06:22:23.748Z,53.50
2023-01-13T06:23:23.756Z,59.62
2023-01-13T06:24:23.734Z,58.49
2023-01-13T06:25:23.755Z,56.56
2023-01-13T06:26:23.719Z,53.98
2023-01-13T06:27:23.709Z,54.95
2023-01-13T06:28:23.718Z,55.27
2023-01-13T06:29:23.699Z,52.69
2023-01-13T06:30:23.733Z,55.43
2023-01-13T06:31:23.719Z,54.46
2023-01-13T06:32:23.677Z,55.27
2023-01-13T06:33:23.669Z,57.04
2023-01-13T06:34:23.657Z,57.04
2023-01-13T06:35:23.677Z,56.07
2023-01-13T06:36:23.661Z,52.05
2023-01-13T06:37:23.645Z,56.88
2023-01-13T06:38:23.636Z,58.01
2023-01-13T06:39:23.641Z,57.85
2023-01-13T06:40:23.623Z,51.40
2023-01-13T06:41:23.640Z,57.85
2023-01-13T06:42:23.598Z,56.56
2023-01-13T06:43:23.598Z,59.30
2023-01-13T06:44:23.586Z,54.46
2023-01-13T06:45:23.586Z,60.91
2023-01-13T06:46:23.620Z,50.92
2023-01-13T06:47:23.565Z,59.30
2023-01-13T06:48:23.574Z,52.21
2023-01-13T06:49:23.554Z,59.14
2023-01-13T06:50:23.548Z,53.98
2023-01-13T06:51:23.560Z,58.65
2023-01-13T06:52:23.552Z,55.75
2023-01-13T06:53:23.524Z,56.56
2023-01-13T06:54:23.513Z,51.88
2023-01-13T06:55:23.506Z,50.27
2023-01-13T06:56:23.527Z,57.04
2023-01-13T06:57:23.496Z,55.43
2023-01-13T06:58:23.491Z,58.17
2023-01-13T06:59:23.474Z,52.53
2023-01-13T07:00:23.478Z,55.75
2023-01-13T07:01:23.581Z,56.88
2023-01-13T07:02:23.576Z,54.62
2023-01-13T07:03:23.442Z,56.56
2023-01-13T07:04:23.433Z,56.56
2023-01-13T07:05:23.423Z,61.87
2023-01-13T07:06:23.443Z,58.17
2023-01-13T07:07:23.417Z,59.94
2023-01-13T07:08:23.403Z,54.95
2023-01-13T07:09:23.406Z,58.65
2023-01-13T07:10:23.380Z,55.59
2023-01-13T07:11:23.420Z,54.62
2023-01-13T07:12:23.370Z,51.40
2023-01-13T07:13:23.361Z,53.50
2023-01-13T07:14:23.351Z,57.69
2023-01-13T07:15:24.350Z,60.10
2023-01-13T07:16:23.431Z,55.11
2023-01-13T07:17:23.330Z,51.40
2023-01-13T07:18:23.329Z,58.97
2023-01-13T07:19:23.344Z,49.63
2023-01-13T07:20:23.304Z,57.36
2023-01-13T07:21:23.375Z,49.79
2023-01-13T07:22:23.330Z,60.75
2023-01-13T07:23:23.287Z,52.69
2023-01-13T07:24:23.281Z,57.04
2023-01-13T07:25:23.277Z,56.56
2023-01-13T07:26:23.297Z,49.79
2023-01-13T07:27:23.249Z,50.27
2023-01-13T07:28:23.247Z,48.98
2023-01-13T07:29:23.245Z,57.36
2023-01-13T07:30:23.231Z,56.72
2023-01-13T07:31:23.319Z,55.43
2023-01-13T07:32:23.215Z,54.14
2023-01-13T07:33:23.206Z,53.66
2023-01-13T07:34:23.209Z,57.36
2023-01-13T07:35:23.191Z,52.21
2023-01-13T07:36:23.207Z,51.24
2023-01-13T07:37:23.175Z,53.33
2023-01-13T07:38:23.182Z,55.59
2023-01-13T07:39:23.164Z,54.79
2023-01-13T07:40:23.165Z,57.69
2023-01-13T07:41:23.196Z,55.75
2023-01-13T07:42:23.141Z,53.33
2023-01-13T07:43:23.133Z,54.14
2023-01-13T07:44:23.172Z,56.40
2023-01-13T07:45:23.115Z,56.72
2023-01-13T07:46:23.107Z,57.69
2023-01-13T07:47:23.140Z,48.98
2023-01-13T07:48:23.100Z,57.20
2023-01-13T07:49:23.081Z,60.10
2023-01-13T07:50:23.078Z,52.37
2023-01-13T07:51:23.068Z,56.07
2023-01-13T07:52:23.081Z,50.43
2023-01-13T07:53:23.051Z,58.33
2023-01-13T07:54:35.195Z,60.42
2023-01-13T07:55:25.032Z,55.27
2023-01-13T07:56:23.024Z,56.07
2023-01-13T07:57:23.050Z,60.10
2023-01-13T07:58:23.021Z,56.72
2023-01-13T07:59:23.005Z,56.40
2023-01-13T08:00:23.009Z,49.15
2023-01-13T08:01:23.092Z,53.98
2023-01-13T08:02:23.269Z,47.70
2023-01-13T08:03:23.004Z,53.17
2023-01-13T08:04:22.978Z,54.62
2023-01-13T08:05:22.960Z,54.14
2023-01-13T08:06:22.973Z,54.46
2023-01-13T08:07:22.974Z,53.17
2023-01-13T08:08:22.956Z,57.69
2023-01-13T08:09:22.944Z,58.65
2023-01-13T08:10:22.928Z,57.52
2023-01-13T08:11:23.746Z,57.85
2023-01-13T08:12:23.940Z,53.66
2023-01-13T08:13:22.903Z,61.39
2023-01-13T08:14:22.894Z,59.94
2023-01-13T08:15:22.890Z,55.59
2023-01-13T08:16:22.899Z,51.40
2023-01-13T08:17:22.911Z,55.27
2023-01-13T08:18:22.863Z,58.97
2023-01-13T08:19:22.855Z,54.14
2023-01-13T08:20:22.846Z,57.36
2023-01-13T08:21:22.840Z,54.79
2023-01-13T08:22:22.842Z,52.53
2023-01-13T08:23:22.852Z,54.46
2023-01-13T08:24:22.827Z,55.75
2023-01-13T08:25:22.818Z,57.69
2023-01-13T08:26:22.801Z,53.01
2023-01-13T08:27:22.793Z,56.07
2023-01-13T08:28:22.824Z,50.92
2023-01-13T08:29:22.790Z,55.75
2023-01-13T08:30:22.767Z,50.60
2023-01-13T08:31:22.824Z,50.11
2023-01-13T08:32:22.754Z,52.37
2023-01-13T08:33:22.769Z,52.53
2023-01-13T08:34:22.736Z,59.94
2023-01-13T08:35:22.732Z,54.30
2023-01-13T08:36:22.728Z,53.33
2023-01-13T08:37:22.720Z,55.11
2023-01-13T08:38:22.731Z,55.91
2023-01-13T08:39:22.696Z,54.14
2023-01-13T08:40:22.704Z,56.56
2023-01-13T08:41:22.694Z,57.85
2023-01-13T08:42:22.675Z,52.53
2023-01-13T08:43:22.707Z,57.69
2023-01-13T08:44:23.674Z,56.07
2023-01-13T08:45:22.655Z,53.50
2023-01-13T08:46:22.708Z,53.17
2023-01-13T08:47:22.635Z,52.21
2023-01-13T08:48:22.659Z,56.56
2023-01-13T08:49:22.631Z,52.21
2023-01-13T08:50:22.615Z,55.59
2023-01-13T08:51:22.611Z,54.95
2023-01-13T08:52:22.606Z,54.30
2023-01-13T08:53:22.621Z,52.05
2023-01-13T08:54:22.611Z,56.88
2023-01-13T08:55:22.591Z,56.07
2023-01-13T08:56:22.571Z,52.05
2023-01-13T08:57:22.601Z,51.40
2023-01-13T08:58:22.580Z,53.82
2023-01-13T08:59:22.550Z,57.36
2023-01-13T09:00:22.532Z,49.95
2023-01-13T09:01:22.660Z,52.69
2023-01-13T09:02:22.545Z,54.62
2023-01-13T09:03:22.531Z,47.37
2023-01-13T09:04:23.595Z,47.70
2023-01-13T09:05:22.499Z,47.21
2023-01-13T09:06:22.507Z,57.69
2023-01-13T09:07:22.484Z,54.62
2023-01-13T09:08:22.504Z,53.01
2023-01-13T09:09:22.470Z,48.82
2023-01-13T09:10:22.465Z,50.92
2023-01-13T09:11:22.459Z,50.43
2023-01-13T09:12:22.449Z,47.70
2023-01-13T09:13:22.466Z,57.85
2023-01-13T09:14:22.435Z,50.92
2023-01-13T09:15:22.439Z,53.01
2023-01-13T09:16:22.423Z,50.43
2023-01-13T09:17:22.409Z,49.63
2023-01-13T09:18:22.435Z,48.50
2023-01-13T09:19:22.432Z,52.85
2023-01-13T09:20:22.404Z,47.70
2023-01-13T09:21:22.388Z,47.86
2023-01-13T09:22:22.368Z,51.40
2023-01-13T09:23:22.396Z,50.11
2023-01-13T09:24:22.355Z,52.53
2023-01-13T09:25:22.355Z,51.72
2023-01-13T09:26:22.345Z,52.69
2023-01-13T09:27:22.331Z,50.76
2023-01-13T09:28:22.324Z,48.66
2023-01-13T09:29:22.342Z,52.69
2023-01-13T09:30:22.316Z,51.08
2023-01-13T09:31:22.322Z,53.01
2023-01-13T09:32:22.299Z,52.37
2023-01-13T09:33:22.298Z,49.47
2023-01-13T09:34:22.309Z,53.33
2023-01-13T09:35:22.297Z,50.27
2023-01-13T09:36:22.264Z,49.31
2023-01-13T09:37:22.251Z,57.04
2023-01-13T09:38:22.251Z,56.07
2023-01-13T09:39:22.263Z,49.63
2023-01-13T09:40:22.289Z,53.98
2023-01-13T09:41:22.241Z,52.37
2023-01-13T09:42:22.214Z,49.95
2023-01-13T09:43:22.213Z,55.43
2023-01-13T09:44:22.230Z,48.50
2023-01-13T09:45:22.209Z,50.76
2023-01-13T09:46:22.239Z,55.27
2023-01-13T09:47:22.171Z,53.82
2023-01-13T09:48:23.167Z,51.56
2023-01-13T09:49:22.228Z,53.98
2023-01-13T09:50:22.163Z,50.11
2023-01-13T09:51:22.239Z,53.17
2023-01-13T09:52:22.156Z,55.43
2023-01-13T09:53:22.130Z,51.56
2023-01-13T09:54:22.160Z,57.69
2023-01-13T09:55:22.127Z,57.69
2023-01-13T09:56:22.190Z,52.85
2023-01-13T09:57:22.107Z,51.40
2023-01-13T09:58:22.097Z,50.43
2023-01-13T09:59:22.112Z,53.82
2023-01-13T10:00:23.097Z,54.79
2023-01-13T10:01:22.156Z,50.60
2023-01-13T10:02:22.067Z,51.56
2023-01-13T10:03:22.142Z,49.63
2023-01-13T10:04:22.131Z,54.14
2023-01-13T10:05:22.052Z,52.05
2023-01-13T10:06:22.037Z,50.60
2023-01-13T10:07:24.801Z,47.86
2023-01-13T10:08:22.024Z,53.50
2023-01-13T10:09:22.044Z,50.76
2023-01-13T10:10:22.007Z,48.02
2023-01-13T10:11:21.990Z,55.91
2023-01-13T10:12:22.986Z,54.79
2023-01-13T10:13:21.982Z,51.56
2023-01-13T10:14:22.001Z,51.24
2023-01-13T10:15:21.969Z,51.72
2023-01-13T10:16:22.020Z,57.69
2023-01-13T10:17:21.953Z,52.69
2023-01-13T10:18:21.948Z,51.88
2023-01-13T10:19:21.936Z,52.53
2023-01-13T10:20:21.956Z,53.82
2023-01-13T10:21:21.924Z,51.56
2023-01-13T10:22:21.916Z,50.60
2023-01-13T10:23:21.920Z,54.14
2023-01-13T10:24:21.935Z,51.40
2023-01-13T10:25:21.911Z,55.91
2023-01-13T10:26:21.901Z,53.01
2023-01-13T10:27:21.881Z,53.50
2023-01-13T10:28:21.866Z,49.79
2023-01-13T10:29:21.870Z,52.21
2023-01-13T10:30:21.920Z,55.43
2023-01-13T10:31:21.892Z,52.85
2023-01-13T10:32:21.836Z,52.21
2023-01-13T10:33:21.832Z,54.79
2023-01-13T10:34:21.837Z,53.50
2023-01-13T10:35:21.836Z,53.66
2023-01-13T10:36:21.813Z,55.11
2023-01-13T10:37:21.801Z,52.37
2023-01-13T10:38:21.826Z,54.30
2023-01-13T10:39:21.793Z,53.33
2023-01-13T10:40:21.802Z,53.01
2023-01-13T10:41:21.764Z,51.88
2023-01-13T10:42:21.759Z,53.82
2023-01-13T10:43:21.759Z,50.43
2023-01-13T10:44:21.746Z,51.56
2023-01-13T10:45:21.777Z,51.56
2023-01-13T10:46:21.775Z,53.01
2023-01-13T10:47:21.724Z,51.72
2023-01-13T10:48:21.715Z,49.31
2023-01-13T10:49:21.706Z,55.27
2023-01-13T10:50:21.725Z,53.33
2023-01-13T10:51:21.694Z,51.08
2023-01-13T10:52:21.725Z,52.05
2023-01-13T10:53:21.678Z,49.95
2023-01-13T10:54:21.668Z,49.31
2023-01-13T10:55:21.686Z,50.27
2023-01-13T10:56:21.693Z,53.98
2023-01-13T10:57:21.647Z,52.37
2023-01-13T10:58:21.645Z,55.11
2023-01-13T10:59:21.628Z,53.66
2023-01-13T11:00:21.650Z,49.95
2023-01-13T11:01:21.754Z,51.72
2023-01-13T11:02:26.430Z,47.21
2023-01-13T11:03:23.606Z,51.08
2023-01-13T11:04:21.631Z,56.40
2023-01-13T11:05:21.619Z,46.41
2023-01-13T11:06:21.579Z,54.46
2023-01-13T11:07:21.578Z,54.14
2023-01-13T11:08:21.598Z,53.98
2023-01-13T11:09:21.556Z,50.92
2023-01-13T11:10:21.575Z,48.82
2023-01-13T11:11:21.536Z,56.56
2023-01-13T11:12:21.529Z,52.85
2023-01-13T11:13:21.528Z,52.85
2023-01-13T11:14:21.527Z,54.46
2023-01-13T11:15:21.549Z,54.14
2023-01-13T11:16:21.529Z,52.37
2023-01-13T11:17:21.497Z,53.17
2023-01-13T11:18:21.498Z,52.85
2023-01-13T11:19:21.480Z,53.33
2023-01-13T11:20:21.510Z,53.33
2023-01-13T11:21:21.461Z,51.24
2023-01-13T11:22:21.470Z,51.88
2023-01-13T11:23:21.445Z,49.63
2023-01-13T11:24:21.436Z,55.59
2023-01-13T11:25:21.436Z,54.30
2023-01-13T11:26:21.460Z,51.24
2023-01-13T11:27:21.426Z,57.85
2023-01-13T11:28:21.411Z,50.76
2023-01-13T11:29:21.399Z,53.17
2023-01-13T11:30:21.388Z,54.30
2023-01-13T11:31:21.440Z,55.11
2023-01-13T11:32:21.403Z,53.33
2023-01-13T11:33:21.380Z,57.36
2023-01-13T11:34:21.440Z,56.56
2023-01-13T11:35:21.353Z,53.01
2023-01-13T11:36:21.367Z,53.01
2023-01-13T11:37:21.355Z,55.59
2023-01-13T11:38:21.349Z,50.92
2023-01-13T11:39:21.349Z,56.72
2023-01-13T11:40:21.311Z,54.46
2023-01-13T11:41:21.340Z,51.72
2023-01-13T11:42:21.299Z,53.33
2023-01-13T11:43:21.296Z,53.01
2023-01-13T11:44:21.302Z,51.24
2023-01-13T11:45:21.273Z,49.63
2023-01-13T11:46:21.399Z,50.76
2023-01-13T11:47:21.257Z,51.40
2023-01-13T11:48:21.259Z,52.05
2023-01-13T11:49:22.374Z,55.91
2023-01-13T11:50:22.240Z,54.95
2023-01-13T11:51:21.257Z,53.01
2023-01-13T11:52:21.220Z,51.08
2023-01-13T11:53:21.220Z,53.01
2023-01-13T11:54:21.210Z,53.33
2023-01-13T11:55:22.611Z,55.59
2023-01-13T11:56:22.223Z,54.30
2023-01-13T11:57:21.189Z,53.17
2023-01-13T11:58:21.173Z,55.11
2023-01-13T11:59:21.171Z,54.14
2023-01-13T12:00:21.164Z,55.27
2023-01-13T12:01:23.275Z,58.65
2023-01-13T12:02:22.198Z,51.40
2023-01-13T12:03:21.256Z,53.01
2023-01-13T12:04:21.140Z,52.37
2023-01-13T12:05:21.121Z,55.27
2023-01-13T12:06:21.135Z,55.75
2023-01-13T12:07:23.195Z,54.79
2023-01-13T12:08:22.095Z,53.98
2023-01-13T12:09:21.096Z,54.95
2023-01-13T12:10:21.084Z,52.21
2023-01-13T12:11:21.101Z,51.08
2023-01-13T12:12:21.067Z,53.17
2023-01-13T12:13:21.058Z,52.21
2023-01-13T12:14:21.055Z,55.11
2023-01-13T12:15:21.036Z,55.59
2023-01-13T12:16:21.057Z,54.62
2023-01-13T12:17:21.043Z,56.40
2023-01-13T12:18:22.023Z,56.40
2023-01-13T12:19:21.023Z,57.04
2023-01-13T12:20:21.023Z,55.43
2023-01-13T12:21:20.993Z,54.14
2023-01-13T12:22:21.027Z,53.66
2023-01-13T12:23:20.978Z,54.62
2023-01-13T12:24:20.971Z,53.01
2023-01-13T12:25:20.964Z,56.07
2023-01-13T12:26:20.957Z,55.11
2023-01-13T12:27:20.987Z,51.24
2023-01-13T12:28:21.075Z,55.59
2023-01-13T12:29:20.939Z,50.11
2023-01-13T12:30:21.924Z,49.63
2023-01-13T12:31:21.035Z,54.46
2023-01-13T12:32:20.952Z,55.27
2023-01-13T12:33:20.928Z,55.91
2023-01-13T12:34:20.912Z,54.30
2023-01-13T12:35:20.892Z,53.50
2023-01-13T12:36:21.157Z,53.01
2023-01-13T12:37:20.912Z,51.56
2023-01-13T12:38:20.870Z,55.11
2023-01-13T12:39:20.876Z,54.95
2023-01-13T12:40:20.849Z,53.98
2023-01-13T12:41:20.840Z,56.40
2023-01-13T12:42:20.868Z,50.92
2023-01-13T12:43:20.838Z,56.24
2023-01-13T12:44:20.817Z,53.01
2023-01-13T12:45:20.819Z,55.43
2023-01-13T12:46:20.813Z,53.50
2023-01-13T12:47:20.823Z,53.33
2023-01-13T12:48:20.787Z,51.88
2023-01-13T12:49:20.780Z,55.59
2023-01-13T12:50:20.773Z,52.53
2023-01-13T12:51:20.763Z,51.72
2023-01-13T12:52:20.786Z,50.43